createdAt,value
2022-10-29T00:00:08.803Z,4.20
2022-10-29T00:03:11.602Z,4.47
2022-10-29T00:06:15.857Z,4.30
2022-10-29T00:09:18.377Z,4.72
2022-10-29T00:12:20.984Z,5.00
2022-10-29T00:15:23.478Z,4.68
2022-10-29T00:18:25.972Z,4.80
2022-10-29T00:21:29.910Z,5.10
2022-10-29T00:24:32.373Z,5.15
2022-10-29T00:27:34.875Z,4.72
2022-10-29T00:30:37.341Z,4.50
2022-10-29T00:33:39.966Z,4.38
2022-10-29T00:36:43.771Z,4.18
2022-10-29T00:39:46.239Z,4.80
2022-10-29T00:42:48.761Z,4.63
2022-10-29T00:45:54.374Z,5.05
2022-10-29T00:48:59.594Z,4.97
2022-10-29T00:52:04.662Z,5.03
2022-10-29T00:55:10.962Z,5.25
2022-10-29T00:58:13.469Z,5.60
2022-10-29T01:01:16.753Z,5.40
2022-10-29T01:04:19.797Z,5.18
2022-10-29T01:07:24.145Z,5.40
2022-10-29T01:10:38.731Z,5.75
2022-10-29T01:14:02.092Z,5.72
2022-10-29T01:17:17.619Z,5.70
2022-10-29T01:20:57.907Z,5.68
2022-10-29T01:24:28.020Z,6.28
2022-10-29T01:27:54.949Z,6.15
2022-10-29T01:31:15.176Z,5.40
2022-10-29T01:34:25.934Z,6.35
2022-10-29T01:37:34.877Z,6.22
2022-10-29T01:40:46.367Z,5.93
2022-10-29T01:43:53.120Z,6.22
2022-10-29T01:47:01.172Z,5.97
2022-10-29T01:50:07.562Z,5.38
2022-10-29T01:53:11.040Z,5.63
2022-10-29T01:56:13.593Z,5.97
2022-10-29T01:59:28.692Z,6.72
2022-10-29T02:02:51.905Z,6.03
2022-10-29T02:06:06.060Z,6.70
2022-10-29T02:09:15.873Z,6.90
2022-10-29T02:12:24.067Z,5.68
2022-10-29T02:15:31.362Z,6.60
2022-10-29T02:18:42.384Z,7.45
2022-10-29T02:21:45.210Z,6.80
2022-10-29T02:24:47.706Z,6.72
2022-10-29T02:27:50.231Z,5.97
2022-10-29T02:30:52.703Z,6.10
2022-10-29T02:33:56.576Z,5.82
2022-10-29T02:36:59.064Z,6.93
2022-10-29T02:40:01.560Z,7.28
2022-10-29T02:43:04.055Z,7.32
2022-10-29T02:46:15.258Z,6.95
2022-10-29T02:49:19.058Z,7.82
2022-10-29T02:52:21.553Z,8.30
2022-10-29T02:55:24.101Z,7.90
2022-10-29T02:58:26.676Z,7.32
2022-10-29T03:01:29.523Z,7.40
2022-10-29T03:04:33.507Z,7.32
2022-10-29T03:07:36.449Z,7.15
2022-10-29T03:10:38.932Z,7.15
2022-10-29T03:13:41.612Z,7.63
2022-10-29T03:16:44.207Z,8.50
2022-10-29T03:19:48.027Z,8.45
2022-10-29T03:22:50.493Z,8.70
2022-10-29T03:25:56.015Z,8.13
2022-10-29T03:28:58.930Z,8.27
2022-10-29T03:32:01.483Z,7.57
2022-10-29T03:35:06.109Z,9.15
2022-10-29T03:38:08.972Z,7.90
2022-10-29T03:41:11.522Z,7.78
2022-10-29T03:44:14.033Z,7.70
2022-10-29T03:47:16.511Z,7.95
2022-10-29T03:50:20.603Z,8.45
2022-10-29T03:53:23.383Z,8.48
2022-10-29T03:56:25.896Z,9.52
2022-10-29T03:59:28.428Z,9.27
2022-10-29T04:02:31.051Z,8.70
2022-10-29T04:05:34.934Z,8.45
2022-10-29T04:08:37.611Z,8.60
2022-10-29T04:11:40.131Z,8.93
2022-10-29T04:14:45.724Z,9.48
2022-10-29T04:17:50.951Z,9.13
2022-10-29T04:31:07.198Z,9.10
2022-10-29T04:34:09.676Z,8.35
2022-10-29T04:37:13.546Z,9.10
2022-10-29T04:40:16.224Z,9.45
2022-10-29T04:43:18.954Z,8.80
2022-10-29T04:46:21.551Z,9.43
2022-10-29T04:49:24.193Z,9.10
2022-10-29T04:52:28.155Z,9.50
2022-10-29T04:55:31.277Z,9.07
2022-10-29T04:58:33.762Z,9.10
2022-10-29T05:04:43.608Z,9.50
2022-10-29T05:07:47.920Z,9.30
2022-10-29T05:10:50.426Z,9.50
2022-10-29T05:13:52.921Z,8.95
2022-10-29T05:16:55.493Z,9.90
2022-10-29T05:19:58.061Z,9.50
2022-10-29T05:23:03.240Z,10.55
2022-10-29T05:26:05.955Z,9.98
2022-10-29T05:29:08.423Z,10.32
2022-10-29T05:32:10.904Z,11.38
2022-10-29T05:35:13.493Z,9.80
2022-10-29T05:38:18.495Z,10.60
2022-10-29T05:41:21.310Z,11.15
2022-10-29T05:44:23.887Z,11.05
2022-10-29T05:47:26.359Z,10.77
2022-10-29T05:50:29.447Z,10.05
2022-10-29T05:53:33.250Z,10.68
2022-10-29T05:56:35.724Z,12.32
2022-10-29T05:59:38.227Z,11.68
2022-10-29T06:02:43.697Z,10.65
2022-10-29T06:05:47.974Z,11.40
2022-10-29T06:08:51.793Z,10.73
2022-10-29T06:11:55.497Z,10.77
2022-10-29T06:14:58.079Z,11.35
2022-10-29T06:18:00.588Z,11.13
2022-10-29T06:21:03.096Z,13.18
2022-10-29T06:24:07.892Z,12.82
2022-10-29T06:27:10.382Z,12.10
2022-10-29T06:30:13.771Z,14.38
2022-10-29T06:33:16.599Z,13.18
2022-10-29T06:36:19.071Z,13.68
2022-10-29T06:39:22.972Z,13.25
2022-10-29T06:42:25.433Z,13.65
2022-10-29T06:45:28.075Z,13.90
2022-10-29T06:48:30.652Z,12.93
2022-10-29T06:51:33.129Z,14.95
2022-10-29T06:54:36.976Z,13.48
2022-10-29T06:57:41.630Z,14.40
2022-10-29T07:00:45.167Z,13.27
2022-10-29T07:03:48.063Z,13.27
2022-10-29T07:06:50.623Z,13.40
2022-10-29T07:09:54.432Z,13.23
2022-10-29T07:12:58.332Z,11.27
2022-10-29T07:16:00.868Z,11.25
2022-10-29T07:19:03.691Z,11.50
2022-10-29T07:22:06.174Z,13.30
2022-10-29T07:25:14.764Z,11.70
2022-10-29T07:28:20.892Z,12.27
2022-10-29T07:31:23.465Z,13.35
2022-10-29T07:34:25.964Z,12.85
2022-10-29T07:37:28.557Z,13.30
2022-10-29T07:40:32.441Z,13.43
2022-10-29T07:43:35.033Z,14.15
2022-10-29T07:46:37.572Z,13.43
2022-10-29T07:49:40.074Z,12.38
2022-10-29T07:52:43.964Z,13.32
2022-10-29T07:55:53.365Z,14.10
2022-10-29T07:58:55.905Z,13.90
2022-10-29T08:01:58.529Z,12.80
2022-10-29T08:05:01.086Z,13.65
2022-10-29T08:08:03.627Z,14.00
2022-10-29T08:11:07.777Z,13.18
2022-10-29T08:14:10.345Z,13.75
2022-10-29T08:17:12.905Z,13.40
2022-10-29T08:20:15.954Z,12.50
2022-10-29T08:23:18.602Z,10.88
2022-10-29T08:26:22.398Z,11.57
2022-10-29T08:29:24.991Z,11.68
2022-10-29T08:32:27.474Z,10.88
2022-10-29T08:35:30.462Z,11.05
2022-10-29T08:38:33.143Z,11.27
2022-10-29T08:41:45.562Z,10.45
2022-10-29T08:45:07.061Z,10.63
2022-10-29T08:48:25.397Z,10.27
2022-10-29T08:51:31.826Z,10.70
2022-10-29T08:54:37.577Z,11.05
2022-10-29T08:57:44.810Z,10.80
2022-10-29T09:00:50.239Z,10.45
2022-10-29T09:03:53.154Z,9.32
2022-10-29T09:07:25.437Z,10.18
2022-10-29T09:10:33.872Z,9.50
2022-10-29T09:13:51.781Z,9.35
2022-10-29T09:16:59.596Z,8.50
2022-10-29T09:20:19.801Z,8.75
2022-10-29T09:23:35.903Z,10.27
2022-10-29T09:26:49.664Z,8.70
2022-10-29T09:30:03.588Z,8.38
2022-10-29T09:33:12.721Z,8.18
2022-10-29T09:36:18.483Z,8.73
2022-10-29T09:39:33.112Z,7.68
2022-10-29T09:42:39.070Z,7.57
2022-10-29T09:45:51.634Z,8.13
2022-10-29T09:49:04.332Z,7.43
2022-10-29T09:52:11.951Z,8.27
2022-10-29T09:55:21.610Z,7.32
2022-10-29T09:58:26.318Z,8.50
2022-10-29T10:01:30.273Z,8.35
2022-10-29T10:04:38.458Z,9.40
2022-10-29T10:07:41.243Z,8.07
2022-10-29T10:10:54.718Z,8.15
2022-10-29T10:13:59.803Z,8.07
2022-10-29T10:17:03.858Z,7.60
2022-10-29T10:20:27.586Z,7.95
2022-10-29T10:23:32.098Z,6.93
2022-10-29T10:26:39.313Z,7.47
2022-10-29T10:29:41.870Z,7.07
2022-10-29T10:32:45.671Z,6.78
2022-10-29T10:35:48.226Z,6.72
2022-10-29T10:38:53.967Z,6.47
2022-10-29T10:41:58.627Z,7.32
2022-10-29T10:45:04.239Z,6.60
2022-10-29T10:48:12.028Z,6.80
2022-10-29T10:51:25.351Z,6.68
2022-10-29T10:54:31.943Z,7.07
2022-10-29T10:57:38.951Z,6.85
2022-10-29T11:00:45.169Z,7.60
2022-10-29T11:03:52.644Z,6.63
2022-10-29T11:07:00.811Z,6.28
2022-10-29T11:10:06.669Z,7.78
2022-10-29T11:13:16.974Z,6.50
2022-10-29T11:16:28.829Z,6.93
2022-10-29T11:19:39.289Z,6.68
2022-10-29T11:22:53.791Z,6.47
2022-10-29T11:26:03.750Z,6.38
2022-10-29T11:29:18.718Z,7.45
2022-10-29T11:32:27.306Z,6.40
2022-10-29T11:35:39.429Z,5.95
2022-10-29T11:38:48.477Z,6.13
2022-10-29T11:41:58.322Z,5.93
2022-10-29T11:45:01.054Z,6.05
2022-10-29T11:48:21.738Z,6.43
2022-10-29T11:51:36.476Z,5.67
2022-10-29T11:54:53.416Z,5.55
2022-10-29T11:58:00.113Z,6.32
2022-10-29T12:01:12.469Z,6.75
2022-10-29T12:04:27.980Z,5.22
2022-10-29T12:07:48.776Z,5.78
2022-10-29T12:10:58.896Z,5.80
2022-10-29T12:14:08.735Z,6.07
2022-10-29T12:17:15.058Z,6.43
2022-10-29T12:20:27.616Z,6.22
2022-10-29T12:23:41.880Z,5.82
2022-10-29T12:26:46.789Z,5.70
2022-10-29T12:29:54.982Z,5.88
2022-10-29T12:33:06.133Z,6.85
2022-10-29T12:36:16.143Z,7.28
2022-10-29T12:39:33.241Z,6.18
2022-10-29T12:42:36.585Z,6.75
2022-10-29T12:46:14.334Z,7.38
2022-10-29T12:49:19.313Z,7.70
2022-10-29T12:52:30.038Z,7.70
2022-10-29T12:55:36.997Z,7.95
2022-10-29T12:58:50.806Z,7.80
2022-10-29T13:05:35.834Z,8.85
2022-10-29T13:08:39.517Z,9.38
2022-10-29T13:11:48.605Z,8.48
2022-10-29T13:14:56.163Z,9.18
2022-10-29T13:18:02.307Z,10.18
2022-10-29T13:21:05.049Z,10.38
2022-10-29T13:24:17.859Z,11.32
2022-10-29T13:27:37.181Z,11.10
2022-10-29T13:30:41.133Z,11.70
2022-10-29T13:33:50.805Z,10.88
2022-10-29T13:36:53.294Z,10.95
2022-10-29T13:40:29.455Z,10.35
2022-10-29T13:43:34.711Z,10.88
2022-10-29T13:46:46.924Z,10.63
2022-10-29T13:49:49.891Z,10.38
2022-10-29T13:52:56.163Z,10.80
2022-10-29T13:55:59.963Z,10.43
2022-10-29T13:59:09.133Z,9.80
2022-10-29T14:02:22.765Z,10.50
2022-10-29T14:05:29.667Z,19.27
2022-10-29T14:08:37.933Z,10.43
2022-10-29T14:11:43.227Z,9.25
2022-10-29T14:14:54.183Z,9.45
2022-10-29T14:17:56.667Z,9.63
2022-10-29T14:21:00.586Z,9.32
2022-10-29T14:24:04.856Z,15.23
2022-10-29T14:27:08.993Z,12.43
2022-10-29T14:30:20.588Z,9.75
2022-10-29T14:33:25.369Z,8.13
2022-10-29T14:36:32.264Z,9.32
2022-10-29T14:39:55.288Z,8.73
2022-10-29T14:43:01.591Z,8.45
2022-10-29T14:46:18.214Z,9.27
2022-10-29T14:49:23.771Z,9.20
2022-10-29T14:52:30.860Z,8.88
2022-10-29T14:55:36.153Z,8.48
2022-10-29T14:58:39.387Z,8.05
2022-10-29T15:01:56.874Z,9.60
2022-10-29T15:05:04.640Z,9.57
2022-10-29T15:08:16.297Z,9.50
2022-10-29T15:11:39.670Z,8.70
2022-10-29T15:14:47.851Z,9.50
2022-10-29T15:17:56.000Z,10.45
2022-10-29T15:20:59.594Z,9.77
2022-10-29T15:24:06.539Z,9.15
2022-10-29T15:27:14.829Z,9.23
2022-10-29T15:30:20.423Z,10.82
2022-10-29T15:33:28.444Z,9.55
2022-10-29T15:36:45.786Z,10.60
2022-10-29T15:40:02.186Z,11.25
2022-10-29T15:43:28.144Z,10.50
2022-10-29T15:46:36.105Z,9.18
2022-10-29T15:49:39.970Z,9.13
2022-10-29T15:52:45.221Z,9.50
2022-10-29T15:55:52.788Z,10.70
2022-10-29T15:58:56.835Z,9.82
2022-10-29T16:01:59.448Z,12.00
2022-10-29T16:05:03.444Z,12.70
2022-10-29T16:08:06.567Z,14.50
2022-10-29T16:11:13.916Z,33.70
2022-10-29T16:14:16.478Z,29.58
2022-10-29T16:17:21.002Z,25.73
2022-10-29T16:20:24.831Z,20.15
2022-10-29T16:23:27.498Z,16.23
2022-10-29T16:26:30.017Z,15.00
2022-10-29T16:29:32.575Z,25.92
2022-10-29T16:32:35.102Z,13.90
2022-10-29T16:35:38.951Z,10.43
2022-10-29T16:38:41.559Z,13.98
2022-10-29T16:41:44.278Z,13.95
2022-10-29T16:44:46.787Z,10.35
2022-10-29T16:47:50.907Z,10.07
2022-10-29T16:50:54.711Z,10.20
2022-10-29T16:53:57.195Z,9.52
2022-10-29T16:56:59.665Z,10.68
2022-10-29T17:00:02.157Z,12.07
2022-10-29T17:03:09.956Z,9.70
2022-10-29T17:06:14.864Z,12.73
2022-10-29T17:09:19.695Z,12.32
2022-10-29T17:12:25.641Z,13.00
2022-10-29T17:15:28.495Z,10.80
2022-10-29T17:18:32.339Z,10.63
2022-10-29T17:21:36.130Z,9.95
2022-10-29T17:24:38.682Z,10.45
2022-10-29T17:27:41.743Z,11.60
2022-10-29T17:30:44.207Z,11.82
2022-10-29T17:33:46.740Z,13.13
2022-10-29T17:36:51.940Z,12.93
2022-10-29T17:39:54.494Z,10.98
2022-10-29T17:42:57.268Z,10.95
2022-10-29T17:45:59.948Z,11.93
2022-10-29T17:49:02.553Z,17.63
2022-10-29T17:52:07.242Z,14.18
2022-10-29T17:55:10.054Z,12.25
2022-10-29T17:58:17.693Z,12.15
2022-10-29T18:01:20.670Z,10.05
2022-10-29T18:04:23.227Z,11.68
2022-10-29T18:07:27.112Z,12.65
2022-10-29T18:10:29.967Z,13.15
2022-10-29T18:13:34.436Z,12.13
2022-10-29T18:16:37.007Z,12.30
2022-10-29T18:19:39.571Z,16.52
2022-10-29T18:22:43.617Z,14.13
2022-10-29T18:25:58.375Z,15.13
2022-10-29T18:29:06.548Z,16.92
2022-10-29T18:32:13.550Z,16.13
2022-10-29T18:35:22.852Z,17.13
2022-10-29T18:38:49.242Z,15.07
2022-10-29T18:41:57.280Z,16.73
2022-10-29T18:45:05.245Z,16.50
2022-10-29T18:48:15.729Z,18.23
2022-10-29T18:51:51.201Z,18.95
2022-10-29T18:54:47.476Z,27.70
2022-10-29T18:58:11.998Z,24.08
2022-10-29T19:01:40.517Z,20.98
2022-10-29T19:04:47.214Z,19.90
2022-10-29T19:07:59.269Z,22.35
2022-10-29T19:11:05.748Z,20.88
2022-10-29T19:14:20.301Z,23.92
2022-10-29T19:17:29.828Z,12.55
2022-10-29T19:20:43.374Z,15.27
2022-10-29T19:24:06.971Z,14.18
2022-10-29T19:27:34.177Z,15.05
2022-10-29T19:30:37.593Z,14.75
2022-10-29T19:33:48.451Z,17.17
2022-10-29T19:36:58.088Z,16.17
2022-10-29T19:40:01.999Z,17.73
2022-10-29T19:43:07.237Z,21.60
2022-10-29T19:46:12.724Z,20.00
2022-10-29T19:49:15.995Z,20.60
2022-10-29T19:52:19.813Z,48.20
2022-10-29T19:55:26.801Z,24.50
2022-10-29T19:58:38.319Z,19.15
2022-10-29T20:01:44.246Z,16.45
2022-10-29T20:04:56.835Z,14.05
2022-10-29T20:08:02.626Z,14.48
2022-10-29T20:11:13.346Z,12.32
2022-10-29T20:14:22.206Z,11.45
2022-10-29T20:17:31.188Z,11.07
2022-10-29T20:20:36.584Z,12.68
2022-10-29T20:23:41.857Z,10.50
2022-10-29T20:27:01.436Z,12.82
2022-10-29T20:30:11.659Z,11.63
2022-10-29T20:33:16.601Z,15.52
2022-10-29T20:36:25.405Z,14.80
2022-10-29T20:39:33.246Z,15.32
2022-10-29T20:42:36.265Z,18.20
2022-10-29T20:45:43.144Z,16.08
2022-10-29T20:48:45.726Z,16.00
2022-10-29T20:51:48.204Z,14.23
2022-10-29T20:54:50.810Z,15.27
2022-10-29T20:57:53.292Z,13.60
2022-10-29T21:01:05.521Z,13.07
2022-10-29T21:04:08.105Z,12.55
2022-10-29T21:07:10.618Z,13.05
2022-10-29T21:10:13.226Z,12.93
2022-10-29T21:13:16.160Z,13.98
2022-10-29T21:16:21.830Z,15.88
2022-10-29T21:19:25.882Z,15.57
2022-10-29T21:22:28.462Z,16.73
2022-10-29T21:25:30.947Z,14.13
2022-10-29T21:28:33.505Z,13.68
2022-10-29T21:31:37.385Z,13.55
2022-10-29T21:34:39.865Z,14.75
2022-10-29T21:37:42.799Z,15.15
2022-10-29T21:40:45.343Z,16.83
2022-10-29T21:43:47.830Z,14.07
2022-10-29T21:46:51.671Z,9.00
2022-10-29T21:49:54.229Z,10.48
2022-10-29T21:52:57.462Z,10.30
2022-10-29T21:56:01.947Z,10.50
2022-10-29T21:59:04.440Z,11.93
2022-10-29T22:02:08.369Z,11.60
2022-10-29T22:05:11.028Z,14.77
2022-10-29T22:08:13.548Z,15.88
2022-10-29T22:11:16.546Z,17.85
2022-10-29T22:14:19.066Z,15.77
2022-10-29T22:17:22.865Z,14.52
2022-10-29T22:20:25.359Z,16.23
2022-10-29T22:23:27.839Z,14.57
2022-10-29T22:26:31.054Z,13.07
2022-10-29T22:29:33.522Z,14.07
2022-10-29T22:32:37.419Z,13.63
2022-10-29T22:35:39.945Z,14.88
2022-10-29T22:38:42.670Z,12.85
2022-10-29T22:41:45.425Z,11.38
2022-10-29T22:44:48.226Z,11.70
2022-10-29T22:47:52.071Z,12.27
2022-10-29T22:51:00.643Z,14.88
2022-10-29T22:54:03.677Z,16.25
2022-10-29T22:57:06.187Z,10.35
2022-10-29T23:00:09.670Z,13.45
2022-10-29T23:03:13.573Z,15.43
2022-10-29T23:06:17.812Z,13.18
2022-10-29T23:09:20.501Z,12.75
2022-10-29T23:12:22.997Z,11.65
2022-10-29T23:15:25.466Z,14.93
2022-10-29T23:18:29.274Z,9.52
2022-10-29T23:21:31.817Z,12.13
2022-10-29T23:24:34.273Z,11.43
2022-10-29T23:27:36.787Z,12.85
2022-10-29T23:30:39.389Z,12.40
2022-10-29T23:33:46.358Z,13.32
2022-10-29T23:36:48.913Z,13.15
2022-10-29T23:39:51.467Z,12.52
2022-10-29T23:42:53.961Z,11.93
2022-10-29T23:45:56.987Z,10.30
2022-10-29T23:49:00.828Z,10.02
2022-10-29T23:52:03.317Z,11.52
2022-10-29T23:55:06.622Z,10.68
2022-10-29T23:58:09.142Z,8.93
